Time;durP1;ratioP1;P1;durP2;ratioP2;P2;SDS_P1;SDS_P2;PMS_P1;PMS_P2;Temp;Humidity;BMP_temperature;BMP_pressure;BME280_temperature;BME280_humidity;BME280_pressure;Samples;Min_cycle;Max_cycle;Signal;HPM_P1;HPM_P2
2021/04/30 00:01:29;;;;;;;6.32;3.13;;;;;;;12.64;65.99;99362.69;5074022;28;20021;-64
2021/04/30 00:03:54;;;;;;;7.22;3.00;;;;;;;12.58;65.93;99356.53;5083750;28;20798;-65
2021/04/30 00:06:20;;;;;;;6.82;2.80;;;;;;;12.62;65.95;99350.44;5093714;28;20020;-65
2021/04/30 00:08:45;;;;;;;5.10;3.42;;;;;;;12.64;65.96;99357.22;5092580;28;20391;-65
2021/04/30 00:11:11;;;;;;;8.25;3.78;;;;;;;12.60;65.69;99354.28;5076201;28;20082;-65
2021/04/30 00:13:37;;;;;;;6.55;3.05;;;;;;;12.54;65.84;99352.81;5076107;28;20024;-65
2021/04/30 00:16:04;;;;;;;4.20;2.80;;;;;;;12.55;65.88;99354.44;5088645;28;20031;-66
2021/04/30 00:18:30;;;;;;;4.85;2.90;;;;;;;12.52;66.04;99346.84;5094990;28;20020;-65
2021/04/30 00:20:57;;;;;;;4.57;3.33;;;;;;;12.51;66.18;99352.66;5083113;28;20020;-65
2021/04/30 00:23:25;;;;;;;6.97;3.08;;;;;;;12.47;66.33;99351.69;5082329;28;20133;-65
2021/04/30 00:25:58;;;;;;;4.13;2.80;;;;;;;12.50;66.12;99356.50;5087800;28;20016;-66
2021/04/30 00:28:24;;;;;;;4.75;3.40;;;;;;;12.48;66.11;99353.31;5072335;28;20066;-65
2021/04/30 00:30:51;;;;;;;5.30;2.90;;;;;;;12.42;66.06;99349.91;5079332;28;20028;-63
2021/04/30 00:33:17;;;;;;;4.60;3.08;;;;;;;12.41;66.27;99362.75;5080013;28;20036;-65
2021/04/30 00:35:43;;;;;;;4.18;3.10;;;;;;;12.44;66.10;99347.63;5082716;28;20020;-65
2021/04/30 00:38:09;;;;;;;3.92;2.90;;;;;;;12.49;66.13;99349.41;5095365;28;20032;-65
2021/04/30 00:40:35;;;;;;;3.92;2.97;;;;;;;12.56;65.99;99356.06;5079944;28;20099;-65
2021/04/30 00:43:01;;;;;;;4.53;3.10;;;;;;;12.56;65.78;99356.06;5084259;28;20048;-67
2021/04/30 00:45:26;;;;;;;5.22;3.33;;;;;;;12.55;65.72;99354.44;5082302;28;20141;-65
2021/04/30 00:47:53;;;;;;;5.03;3.22;;;;;;;12.54;65.73;99352.03;5093315;28;20027;-65
2021/04/30 00:50:21;;;;;;;5.72;3.28;;;;;;;12.51;66.16;99349.91;5088063;28;20051;-66
2021/04/30 00:52:46;;;;;;;4.00;2.85;;;;;;;12.49;66.01;99352.97;5092325;28;20024;-67
2021/04/30 00:55:14;;;;;;;4.38;2.83;;;;;;;12.50;66.22;99356.50;5091706;28;20603;-65
2021/04/30 00:57:46;;;;;;;3.95;2.90;;;;;;;12.51;66.04;99358.13;5090629;28;20016;-65
2021/04/30 01:00:12;;;;;;;4.28;2.90;;;;;;;12.41;66.41;99348.28;5092659;28;20042;-64
2021/04/30 01:02:39;;;;;;;5.78;3.22;;;;;;;12.26;66.35;99331.19;5092548;28;20026;-65
2021/04/30 01:05:06;;;;;;;3.78;2.85;;;;;;;12.31;66.50;99343.91;5078540;28;20027;-65
2021/04/30 01:07:31;;;;;;;4.60;2.80;;;;;;;12.35;66.40;99346.81;5083856;28;20021;-67
2021/04/30 01:09:57;;;;;;;5.00;2.88;;;;;;;12.36;66.29;99341.03;5074565;28;20080;-65
2021/04/30 01:12:23;;;;;;;7.53;3.28;;;;;;;12.26;66.23;99330.38;5073974;28;20323;-65
2021/04/30 01:14:49;;;;;;;9.52;3.13;;;;;;;12.26;66.44;99322.19;5083025;28;20035;-66
2021/04/30 01:17:14;;;;;;;4.65;2.95;;;;;;;12.42;66.39;99344.44;5082021;28;20240;-64
2021/04/30 01:19:39;;;;;;;4.55;3.00;;;;;;;12.43;66.26;99344.09;5088530;28;20636;-65
2021/04/30 01:22:05;;;;;;;5.22;2.72;;;;;;;12.33;66.20;99338.13;5082219;28;20458;-65
2021/04/30 01:24:30;;;;;;;4.40;2.90;;;;;;;12.41;66.37;99354.53;5085077;28;20469;-67
2021/04/30 01:26:56;;;;;;;4.00;3.03;;;;;;;12.23;66.65;99340.03;5075435;28;20032;-64
2021/04/30 01:29:22;;;;;;;6.57;3.30;;;;;;;12.21;66.73;99345.00;5089215;28;20028;-64
2021/04/30 01:31:47;;;;;;;5.72;3.20;;;;;;;12.21;66.92;99346.94;5080166;28;20074;-65
2021/04/30 01:34:13;;;;;;;5.93;3.08;;;;;;;12.15;67.30;99351.72;5087214;28;20487;-64
2021/04/30 01:36:39;;;;;;;6.85;2.58;;;;;;;12.09;67.46;99356.50;5078282;28;20039;-65
2021/04/30 01:39:08;;;;;;;4.50;2.70;;;;;;;12.06;67.49;99361.81;5089747;28;20028;-65
2021/04/30 01:41:34;;;;;;;5.18;2.83;;;;;;;12.06;67.57;99361.81;5092329;28;20028;-66
2021/04/30 01:44:00;;;;;;;5.40;2.80;;;;;;;12.06;67.55;99362.63;5094332;28;20496;-64
2021/04/30 01:46:26;;;;;;;7.60;2.65;;;;;;;11.99;67.25;99343.13;5083306;28;20838;-65
2021/04/30 01:48:52;;;;;;;4.38;2.42;;;;;;;11.98;67.04;99352.44;5082299;28;20113;-65
2021/04/30 01:51:18;;;;;;;4.85;2.63;;;;;;;12.00;67.30;99352.13;5089501;28;20036;-66
2021/04/30 01:53:44;;;;;;;3.38;2.63;;;;;;;11.85;67.18;99326.81;5089945;28;20020;-65
2021/04/30 01:56:11;;;;;;;5.10;2.70;;;;;;;11.98;67.26;99343.44;5095395;28;20032;-65
2021/04/30 01:58:37;;;;;;;4.65;2.78;;;;;;;12.00;67.16;99339.25;5090191;28;20028;-65
2021/04/30 02:01:04;;;;;;;7.30;2.58;;;;;;;12.03;67.01;99337.81;5081492;28;20031;-66
2021/04/30 02:03:29;;;;;;;7.88;2.70;;;;;;;11.89;67.03;99316.84;5078714;28;20064;-65
2021/04/30 02:05:55;;;;;;;5.10;2.25;;;;;;;12.02;66.91;99347.16;5092973;28;20103;-65
2021/04/30 02:08:21;;;;;;;4.30;2.47;;;;;;;12.01;66.90;99349.06;5081186;28;20024;-66
2021/04/30 02:10:47;;;;;;;5.68;2.30;;;;;;;11.99;66.91;99345.06;5088051;28;20038;-66
2021/04/30 02:13:12;;;;;;;4.88;2.30;;;;;;;11.98;66.91;99341.53;5084175;28;20483;-65
2021/04/30 02:15:41;;;;;;;4.95;2.33;;;;;;;11.95;67.00;99348.38;5092822;28;20024;-64
2021/04/30 02:18:06;;;;;;;3.92;2.42;;;;;;;11.94;66.90;99348.69;5086720;28;20032;-65
2021/04/30 02:20:33;;;;;;;3.15;2.05;;;;;;;11.90;66.79;99353.19;5093655;28;20420;-65
2021/04/30 02:22:58;;;;;;;3.90;2.03;;;;;;;11.69;66.84;99325.59;5070452;28;20028;-65
2021/04/30 02:25:24;;;;;;;3.65;2.10;;;;;;;11.86;66.64;99352.19;5085680;28;20024;-65
2021/04/30 02:27:53;;;;;;;3.40;2.38;;;;;;;11.92;66.78;99350.91;5093761;28;20028;-65
2021/04/30 02:30:19;;;;;;;4.40;2.20;;;;;;;11.98;66.57;99349.72;5088839;28;20029;-66
2021/04/30 02:32:46;;;;;;;3.88;2.20;;;;;;;11.98;66.47;99348.91;5075185;28;20052;-65
2021/04/30 02:35:16;;;;;;;5.13;2.38;;;;;;;11.91;66.78;99347.41;5087698;28;20029;-64
2021/04/30 02:37:42;;;;;;;4.97;2.50;;;;;;;11.89;66.87;99338.69;5092939;28;20034;-65
2021/04/30 02:40:11;;;;;;;4.18;2.00;;;;;;;11.92;66.76;99334.53;5095205;28;20028;-65
2021/04/30 02:42:37;;;;;;;2.78;2.10;;;;;;;12.03;66.77;99343.28;5076441;28;20029;-65
2021/04/30 02:45:05;;;;;;;3.45;2.05;;;;;;;12.02;66.79;99342.50;5078313;28;20056;-66
2021/04/30 02:47:33;;;;;;;4.50;1.90;;;;;;;12.01;66.72;99346.34;5087738;28;20031;-66
2021/04/30 02:49:59;;;;;;;3.85;2.00;;;;;;;12.01;66.54;99349.06;5090532;28;20107;-64
2021/04/30 02:52:26;;;;;;;4.75;2.10;;;;;;;11.96;66.66;99344.53;5088313;28;20039;-65
2021/04/30 02:54:51;;;;;;;3.33;2.17;;;;;;;11.81;66.66;99334.00;5082806;28;20054;-65
2021/04/30 02:57:17;;;;;;;3.55;2.10;;;;;;;11.94;66.98;99343.22;5079369;28;20392;-65
2021/04/30 02:59:43;;;;;;;3.25;2.17;;;;;;;11.98;67.06;99343.44;5077818;28;20381;-65
2021/04/30 03:02:08;;;;;;;5.28;2.20;;;;;;;11.96;67.17;99346.47;5090073;28;20028;-65
2021/04/30 03:04:34;;;;;;;4.00;2.40;;;;;;;11.93;67.30;99341.63;5085234;28;20039;-65
2021/04/30 03:06:59;;;;;;;3.58;2.25;;;;;;;11.99;67.52;99343.13;5067596;28;20481;-65
2021/04/30 03:09:25;;;;;;;3.30;2.08;;;;;;;12.03;67.22;99341.38;5084364;28;20558;-65
2021/04/30 03:11:50;;;;;;;4.93;2.42;;;;;;;12.10;67.33;99343.66;5094304;28;20093;-65
2021/04/30 03:14:16;;;;;;;3.90;2.30;;;;;;;12.13;67.02;99345.75;5087190;28;20486;-67
2021/04/30 03:16:41;;;;;;;2.15;1.80;;;;;;;12.12;67.02;99338.69;5089507;28;20032;-65
2021/04/30 03:19:09;;;;;;;5.00;2.50;;;;;;;12.08;67.00;99333.03;5087697;28;20039;-65
2021/04/30 03:21:34;;;;;;;4.10;2.30;;;;;;;12.13;67.14;99334.81;5096537;28;20067;-65
2021/04/30 03:24:00;;;;;;;3.97;2.05;;;;;;;12.21;67.29;99349.66;5093489;28;20039;-64
2021/04/30 03:26:25;;;;;;;3.50;2.20;;;;;;;12.21;67.22;99349.66;5086218;28;20406;-65
2021/04/30 03:28:50;;;;;;;3.85;2.10;;;;;;;12.23;67.34;99348.22;5088326;28;20054;-66
2021/04/30 03:31:16;;;;;;;2.25;1.92;;;;;;;12.24;67.26;99349.84;5095735;28;20048;-67
2021/04/30 03:33:41;;;;;;;3.70;2.00;;;;;;;12.26;67.23;99346.78;5084562;28;20070;-65
2021/04/30 03:36:07;;;;;;;5.28;2.45;;;;;;;12.23;67.02;99342.75;5073018;28;20035;-64
2021/04/30 03:38:34;;;;;;;3.58;1.98;;;;;;;12.18;66.84;99329.25;5086602;28;20093;-66
2021/04/30 03:40:59;;;;;;;6.90;2.08;;;;;;;12.25;66.95;99345.16;5090537;28;20021;-64
2021/04/30 03:43:25;;;;;;;5.18;2.33;;;;;;;12.28;66.91;99341.81;5092284;28;20055;-64
2021/04/30 03:45:50;;;;;;;4.18;2.10;;;;;;;12.31;66.84;99346.66;5096301;28;20058;-65
2021/04/30 03:48:20;;;;;;;3.70;1.98;;;;;;;12.32;66.75;99345.50;5073233;28;20550;-66
2021/04/30 03:50:46;;;;;;;6.78;2.53;;;;;;;12.31;66.73;99343.91;5080447;28;20025;-66
2021/04/30 03:53:11;;;;;;;3.97;2.13;;;;;;;12.31;66.95;99349.38;5079384;28;20433;-65
2021/04/30 03:55:37;;;;;;;3.13;2.10;;;;;;;12.27;66.93;99345.66;5085020;28;20024;-65
2021/04/30 03:58:03;;;;;;;5.00;2.53;;;;;;;12.28;66.84;99350.00;5086026;28;20028;-66
2021/04/30 04:00:28;;;;;;;4.32;2.00;;;;;;;12.29;66.81;99351.63;5078003;28;20052;-65
2021/04/30 04:02:54;;;;;;;4.35;2.10;;;;;;;12.19;66.72;99327.28;5091267;28;20027;-65
2021/04/30 04:05:19;;;;;;;3.40;2.13;;;;;;;12.29;67.13;99340.69;5075301;28;20017;-65
2021/04/30 04:07:45;;;;;;;3.28;2.10;;;;;;;12.28;66.79;99341.81;5070762;28;20494;-66
2021/04/30 04:10:11;;;;;;;4.65;2.10;;;;;;;12.23;66.61;99334.56;5088535;28;20024;-65
2021/04/30 04:12:36;;;;;;;6.00;2.20;;;;;;;12.22;66.98;99329.41;5088342;28;20165;-65
2021/04/30 04:15:02;;;;;;;4.93;2.08;;;;;;;12.26;67.15;99336.66;5092431;28;20035;-66
2021/04/30 04:17:27;;;;;;;2.95;2.10;;;;;;;12.26;66.99;99333.94;5093015;28;20028;-67
2021/04/30 04:19:53;;;;;;;4.60;2.50;;;;;;;12.28;66.85;99333.59;5090155;28;20027;-65
2021/04/30 04:22:19;;;;;;;5.43;2.38;;;;;;;12.31;66.90;99338.44;5083950;28;20033;-66
2021/04/30 04:24:45;;;;;;;4.88;2.35;;;;;;;12.28;67.04;99339.88;5085140;28;20024;-64
2021/04/30 04:27:11;;;;;;;5.15;2.42;;;;;;;12.23;67.12;99331.81;5088849;28;20016;-65
2021/04/30 04:29:37;;;;;;;6.18;2.40;;;;;;;12.15;67.05;99335.31;5071259;28;20024;-65
2021/04/30 04:32:04;;;;;;;4.75;2.47;;;;;;;12.03;67.43;99341.38;5079953;28;20420;-66
2021/04/30 04:34:29;;;;;;;5.68;2.72;;;;;;;11.93;67.82;99341.63;5095453;28;20031;-65
2021/04/30 04:36:55;;;;;;;4.75;3.08;;;;;;;11.77;67.91;99322.91;5081831;28;20024;-65
2021/04/30 04:39:21;;;;;;;3.67;3.00;;;;;;;11.84;68.00;99354.41;5086608;28;20016;-65
2021/04/30 04:41:46;;;;;;;3.83;2.95;;;;;;;11.81;67.92;99347.66;5094903;28;20028;-66
2021/04/30 04:44:13;;;;;;;4.22;2.97;;;;;;;11.79;68.46;99347.97;5094964;28;20087;-65
2021/04/30 04:46:38;;;;;;;4.35;3.20;;;;;;;11.81;68.20;99359.41;5076919;28;20047;-65
2021/04/30 04:49:04;;;;;;;4.63;3.22;;;;;;;11.78;68.02;99364.66;5092867;28;20523;-65
2021/04/30 04:51:29;;;;;;;3.58;3.00;;;;;;;11.67;68.28;99364.09;5083904;28;20049;-65
2021/04/30 04:53:54;;;;;;;4.93;3.15;;;;;;;11.55;68.35;99359.22;5082786;28;20019;-65
2021/04/30 04:56:25;;;;;;;4.55;3.28;;;;;;;11.53;68.72;99364.16;5087204;28;20395;-65
2021/04/30 04:58:51;;;;;;;4.20;3.38;;;;;;;11.43;69.03;99356.25;5094438;28;20400;-65
2021/04/30 05:01:16;;;;;;;4.38;3.17;;;;;;;11.50;69.01;99365.59;5094363;28;20035;-66
2021/04/30 05:03:41;;;;;;;6.95;3.40;;;;;;;11.51;69.04;99366.41;5092344;28;20535;-65
2021/04/30 05:06:07;;;;;;;7.60;3.38;;;;;;;11.36;69.17;99348.47;5082928;28;20105;-66
2021/04/30 05:08:32;;;;;;;3.97;3.22;;;;;;;11.48;69.16;99362.41;5077514;28;20027;-65
2021/04/30 05:10:58;;;;;;;6.18;3.10;;;;;;;11.53;69.13;99372.34;5074523;28;20094;-64
2021/04/30 05:13:23;;;;;;;4.38;3.08;;;;;;;11.54;69.03;99378.66;5077736;28;20108;-64
2021/04/30 05:15:49;;;;;;;5.97;3.30;;;;;;;11.38;69.07;99362.63;5078165;28;20047;-66
2021/04/30 05:18:14;;;;;;;8.68;3.15;;;;;;;11.49;69.14;99394.00;5084509;28;20446;-65
2021/04/30 05:20:40;;;;;;;5.13;3.17;;;;;;;11.45;69.00;99386.75;5084103;28;20476;-63
2021/04/30 05:23:05;;;;;;;4.82;3.03;;;;;;;11.48;69.19;99389.69;5082090;28;20035;-64
2021/04/30 05:25:31;;;;;;;6.18;3.20;;;;;;;11.44;69.15;99390.63;5080723;28;20028;-65
2021/04/30 05:27:56;;;;;;;6.75;3.03;;;;;;;11.41;69.07;99391.22;5092331;28;20107;-64
2021/04/30 05:30:22;;;;;;;3.78;2.83;;;;;;;11.37;68.95;99399.22;5080390;28;20024;-63
2021/04/30 05:32:47;;;;;;;6.25;3.58;;;;;;;11.35;68.92;99396.00;5085950;28;20047;-63
2021/04/30 05:35:13;;;;;;;3.50;2.75;;;;;;;11.32;68.92;99397.41;5082649;28;20073;-63
2021/04/30 05:37:39;;;;;;;4.50;3.25;;;;;;;11.31;69.20;99395.00;5075224;28;20025;-64
2021/04/30 05:40:05;;;;;;;5.38;3.42;;;;;;;11.32;69.37;99408.34;5085840;28;20117;-63
2021/04/30 05:42:30;;;;;;;6.18;3.72;;;;;;;11.36;69.40;99403.06;5074010;28;20062;-65
2021/04/30 05:44:56;;;;;;;7.75;3.47;;;;;;;11.37;69.39;99410.13;5097242;28;20027;-64
2021/04/30 05:47:22;;;;;;;5.15;3.92;;;;;;;11.34;69.46;99402.56;5098306;28;20280;-64
2021/04/30 05:49:48;;;;;;;6.20;3.65;;;;;;;11.41;69.15;99402.94;5091498;28;20309;-64
2021/04/30 05:52:13;;;;;;;5.18;3.95;;;;;;;11.49;69.26;99410.38;5090432;28;20024;-65
2021/04/30 05:54:40;;;;;;;7.40;4.35;;;;;;;11.53;69.10;99417.97;5085664;28;20030;-63
2021/04/30 05:57:05;;;;;;;8.82;4.75;;;;;;;11.54;69.13;99417.66;5086637;28;20480;-64
2021/04/30 05:59:31;;;;;;;5.40;4.28;;;;;;;11.57;69.24;99422.50;5095594;28;20024;-65
2021/04/30 06:01:57;;;;;;;5.55;4.20;;;;;;;11.62;69.04;99424.31;5081507;28;20032;-64
2021/04/30 06:04:24;;;;;;;6.38;4.22;;;;;;;11.61;69.15;99417.25;5087474;28;20536;-63
2021/04/30 06:06:50;;;;;;;5.15;4.10;;;;;;;11.63;69.18;99420.47;5096198;28;20012;-64
2021/04/30 06:09:19;;;;;;;7.00;4.40;;;;;;;11.61;68.98;99425.44;5083242;28;20529;-66
2021/04/30 06:11:45;;;;;;;9.52;3.63;;;;;;;11.55;69.02;99422.00;5089383;28;20614;-64
2021/04/30 06:14:11;;;;;;;6.97;4.20;;;;;;;11.44;68.89;99409.72;5094014;28;20031;-63
2021/04/30 06:16:38;;;;;;;5.35;3.92;;;;;;;11.37;69.12;99404.69;5085378;28;21298;-62
2021/04/30 06:19:03;;;;;;;6.82;4.28;;;;;;;11.59;69.06;99430.38;5088336;28;20079;-66
2021/04/30 06:21:29;;;;;;;8.98;4.43;;;;;;;11.60;69.09;99429.28;5092039;28;20024;-64
2021/04/30 06:23:54;;;;;;;5.75;4.18;;;;;;;11.64;68.96;99430.28;5074053;28;20863;-63
2021/04/30 06:26:20;;;;;;;7.05;4.63;;;;;;;11.71;68.94;99432.56;5084267;28;20032;-64
2021/04/30 06:28:45;;;;;;;7.75;4.95;;;;;;;11.74;68.97;99423.75;5082420;28;20085;-65
2021/04/30 06:31:11;;;;;;;8.82;4.70;;;;;;;11.85;68.69;99440.69;5091016;28;20053;-64
2021/04/30 06:33:36;;;;;;;10.23;4.75;;;;;;;11.86;68.80;99440.38;5097848;28;20024;-64
2021/04/30 06:36:02;;;;;;;7.20;4.80;;;;;;;11.88;68.59;99451.03;5086129;28;20025;-64
2021/04/30 06:38:27;;;;;;;7.00;4.57;;;;;;;11.81;68.67;99437.78;5088172;28;20031;-64
2021/04/30 06:40:53;;;;;;;6.28;4.70;;;;;;;11.86;68.68;99445.06;5098816;28;20031;-64
2021/04/30 06:43:18;;;;;;;7.03;4.15;;;;;;;11.75;68.56;99425.38;5089016;28;20025;-66
2021/04/30 06:45:44;;;;;;;7.18;4.13;;;;;;;11.81;68.48;99452.25;5077434;28;20033;-63
2021/04/30 06:48:09;;;;;;;7.75;5.03;;;;;;;11.69;68.68;99437.53;5080258;28;20024;-64
2021/04/30 06:50:35;;;;;;;7.07;4.45;;;;;;;11.78;68.66;99446.59;5088061;28;20024;-63
2021/04/30 06:53:00;;;;;;;8.05;4.70;;;;;;;11.79;68.61;99446.28;5092007;28;20481;-65
2021/04/30 06:55:26;;;;;;;5.20;4.50;;;;;;;11.80;68.51;99450.66;5090618;28;20052;-64
2021/04/30 06:57:51;;;;;;;4.53;3.70;;;;;;;11.82;68.33;99462.03;5085371;28;20031;-65
2021/04/30 07:00:17;;;;;;;9.50;4.47;;;;;;;11.86;68.11;99458.72;5084437;28;20058;-65
2021/04/30 07:02:44;;;;;;;4.57;4.05;;;;;;;11.90;68.18;99465.19;5077933;28;20548;-64
2021/04/30 07:05:10;;;;;;;6.97;3.75;;;;;;;11.85;68.03;99451.63;5083064;28;20032;-64
2021/04/30 07:07:35;;;;;;;8.52;3.90;;;;;;;11.92;67.88;99463.75;5078383;28;20024;-65
2021/04/30 07:10:02;;;;;;;5.13;3.60;;;;;;;11.98;67.75;99459.00;5079810;28;20029;-66
2021/04/30 07:12:27;;;;;;;5.95;3.80;;;;;;;12.01;67.81;99458.34;5078920;28;20028;-64
2021/04/30 07:14:52;;;;;;;5.82;3.50;;;;;;;12.05;67.43;99461.28;5091733;28;20077;-63
2021/04/30 07:17:18;;;;;;;9.73;3.55;;;;;;;12.12;67.39;99462.47;5081822;28;20052;-65
2021/04/30 07:19:43;;;;;;;4.90;3.70;;;;;;;12.23;67.39;99464.94;5088980;28;20270;-63
2021/04/30 07:22:11;;;;;;;5.65;3.70;;;;;;;12.33;67.06;99466.59;5093660;28;20058;-65
2021/04/30 07:24:37;;;;;;;6.05;3.75;;;;;;;12.36;66.82;99472.25;5095279;28;20032;-64
2021/04/30 07:27:04;;;;;;;5.95;3.55;;;;;;;12.26;66.47;99453.38;5083090;28;20032;-64
2021/04/30 07:29:29;;;;;;;6.25;3.53;;;;;;;12.37;66.31;99468.41;5095846;28;20024;-66
2021/04/30 07:31:56;;;;;;;7.78;4.00;;;;;;;12.38;66.19;99470.00;5095228;28;20425;-65
2021/04/30 07:34:21;;;;;;;6.90;3.75;;;;;;;12.39;66.24;99468.91;5093042;28;20059;-66
2021/04/30 07:36:47;;;;;;;11.00;3.75;;;;;;;12.48;66.15;99470.88;5090661;28;20043;-65
2021/04/30 07:39:12;;;;;;;4.28;3.33;;;;;;;12.53;65.83;99473.47;5089992;28;20032;-64
2021/04/30 07:41:38;;;;;;;7.97;3.90;;;;;;;12.56;65.83;99478.31;5076268;28;20074;-64
2021/04/30 07:44:03;;;;;;;4.70;3.45;;;;;;;12.57;65.66;99479.91;5073532;28;20029;-66
2021/04/30 07:46:28;;;;;;;4.25;3.70;;;;;;;12.55;65.32;99473.97;5084006;28;20020;-65
2021/04/30 07:48:54;;;;;;;6.22;3.60;;;;;;;12.57;65.54;99468.97;5078238;28;20393;-66
2021/04/30 07:51:19;;;;;;;5.97;3.50;;;;;;;12.63;65.22;99481.41;5092204;28;20373;-65
2021/04/30 07:53:45;;;;;;;4.40;3.10;;;;;;;12.65;65.11;99478.34;5081621;28;20040;-65
2021/04/30 07:56:12;;;;;;;4.63;3.17;;;;;;;12.60;64.88;99473.81;5084595;28;20028;-67
2021/04/30 07:58:37;;;;;;;8.02;3.47;;;;;;;12.66;64.75;99483.47;5093435;28;20039;-65
2021/04/30 08:01:03;;;;;;;5.50;3.47;;;;;;;12.62;64.72;99474.31;5095314;28;20024;-67
2021/04/30 08:03:28;;;;;;;4.38;3.05;;;;;;;12.65;64.67;99484.59;5077140;28;20076;-66
2021/04/30 08:05:54;;;;;;;5.95;3.30;;;;;;;12.59;64.59;99470.28;5076537;28;20017;-66
2021/04/30 08:08:20;;;;;;;8.32;3.30;;;;;;;12.62;64.54;99476.22;5086553;28;20764;-65
2021/04/30 08:10:45;;;;;;;5.25;3.20;;;;;;;12.62;64.58;99477.03;5094301;28;20032;-66
2021/04/30 08:13:11;;;;;;;4.47;3.33;;;;;;;12.54;64.86;99467.66;5091463;28;20027;-65
2021/04/30 08:15:37;;;;;;;4.47;3.30;;;;;;;12.63;64.82;99481.41;5082227;28;20055;-66
2021/04/30 08:18:03;;;;;;;6.00;3.53;;;;;;;12.62;65.00;99476.22;5096632;28;20024;-66
2021/04/30 08:20:29;;;;;;;5.05;3.13;;;;;;;12.70;64.74;99479.00;5086050;28;20070;-65
2021/04/30 08:22:55;;;;;;;9.57;4.53;;;;;;;12.72;64.83;99482.25;5093916;28;20107;-65
2021/04/30 08:25:20;;;;;;;8.63;3.33;;;;;;;12.78;64.74;99480.16;5096955;28;20020;-66
2021/04/30 08:27:46;;;;;;;4.93;3.70;;;;;;;12.87;64.56;99474.72;5080902;28;20078;-67
2021/04/30 08:30:12;;;;;;;5.43;3.40;;;;;;;12.89;64.56;99470.56;5083937;28;20032;-64
2021/04/30 08:32:38;;;;;;;5.13;3.30;;;;;;;13.04;64.28;99476.69;5085023;28;20087;-65
2021/04/30 08:35:04;;;;;;;5.05;3.40;;;;;;;13.11;64.00;99479.78;5078342;28;20060;-67
2021/04/30 08:37:30;;;;;;;7.65;3.03;;;;;;;13.20;64.11;99477.09;5085911;28;20480;-65
2021/04/30 08:39:57;;;;;;;4.30;3.22;;;;;;;13.33;63.67;99472.59;5075521;28;20400;-65
2021/04/30 08:42:23;;;;;;;6.38;3.47;;;;;;;13.45;63.46;99466.53;5087639;28;20028;-65
2021/04/30 08:44:49;;;;;;;4.80;3.55;;;;;;;13.54;63.26;99468.13;5076890;28;20047;-66
2021/04/30 08:47:18;;;;;;;6.15;3.38;;;;;;;13.64;63.05;99469.75;5075400;28;20552;-65
2021/04/30 08:49:46;;;;;;;5.90;3.33;;;;;;;13.75;62.75;99458.47;5077750;28;20028;-65
2021/04/30 08:52:12;;;;;;;4.28;3.08;;;;;;;13.82;62.16;99461.53;5080199;28;20028;-64
2021/04/30 08:54:39;;;;;;;6.05;3.38;;;;;;;13.98;61.85;99462.63;5079130;28;20024;-64
2021/04/30 08:57:08;;;;;;;4.35;3.08;;;;;;;13.97;61.94;99444.56;5082614;28;20052;-64
2021/04/30 08:59:33;;;;;;;4.10;2.80;;;;;;;14.27;61.52;99457.59;5073207;28;20392;-65
2021/04/30 09:02:00;;;;;;;5.05;3.53;;;;;;;14.37;61.04;99457.25;5082098;28;20036;-64
2021/04/30 09:04:26;;;;;;;4.43;3.20;;;;;;;14.31;60.06;99447.59;5090057;28;20047;-65
2021/04/30 09:06:52;;;;;;;6.75;3.30;;;;;;;14.33;59.79;99461.78;5082806;28;20024;-66
2021/04/30 09:09:20;;;;;;;4.07;3.42;;;;;;;14.33;59.68;99470.00;5077912;28;20111;-65
2021/04/30 09:11:54;;;;;;;3.90;3.25;;;;;;;14.28;59.50;99475.66;5090107;28;20085;-66
2021/04/30 09:14:31;;;;;;;6.43;4.47;;;;;;;14.31;59.94;99467.56;5090652;28;20494;-64
2021/04/30 09:17:13;;;;;;;5.18;3.30;;;;;;;14.35;59.42;99470.47;5074030;28;20032;-65
2021/04/30 09:19:50;;;;;;;5.05;3.00;;;;;;;14.29;59.42;99471.78;5088086;28;20032;-64
2021/04/30 09:22:31;;;;;;;6.22;3.50;;;;;;;14.15;59.20;99477.44;5091882;28;20035;-66
2021/04/30 09:25:16;;;;;;;6.75;3.17;;;;;;;14.12;59.60;99483.59;5085527;28;20112;-65
2021/04/30 09:27:46;;;;;;;3.72;2.38;;;;;;;14.05;59.54;99484.09;5075790;28;20030;-66
2021/04/30 09:30:28;;;;;;;4.95;2.50;;;;;;;14.01;59.56;99494.06;5081064;28;20381;-64
2021/04/30 09:33:11;;;;;;;3.75;2.40;;;;;;;14.04;59.24;99492.63;5075547;28;20416;-66
2021/04/30 09:35:40;;;;;;;3.33;2.40;;;;;;;14.06;59.09;99482.97;5073171;28;20036;-64
2021/04/30 09:38:26;;;;;;;4.07;2.60;;;;;;;14.21;59.04;99476.16;5084685;28;20117;-64
2021/04/30 09:41:02;;;;;;;5.70;2.67;;;;;;;14.25;58.75;99466.16;5077795;28;20032;-65
2021/04/30 09:43:43;;;;;;;4.63;2.40;;;;;;;14.40;58.59;99472.22;5077650;28;20031;-65
2021/04/30 09:46:27;;;;;;;2.55;1.85;;;;;;;14.52;57.57;99469.63;5093514;28;20087;-66
2021/04/30 09:49:01;;;;;;;2.50;1.80;;;;;;;14.58;57.16;99473.81;5084383;28;20024;-65
2021/04/30 09:51:44;;;;;;;3.50;1.77;;;;;;;14.64;56.28;99472.47;5082995;28;20024;-65
2021/04/30 09:54:27;;;;;;;2.85;1.85;;;;;;;14.68;56.31;99466.38;5090454;28;20028;-66
2021/04/30 09:57:04;;;;;;;3.80;2.20;;;;;;;14.72;56.09;99467.31;5077618;28;20028;-66
2021/04/30 09:59:29;;;;;;;3.03;2.08;;;;;;;14.73;55.74;99468.94;5089112;28;20399;-65
2021/04/30 10:02:03;;;;;;;4.55;1.80;;;;;;;14.70;55.20;99464.91;5081085;28;20123;-66
2021/04/30 10:04:31;;;;;;;3.40;1.80;;;;;;;14.72;55.49;99459.09;5092035;28;20016;-64
2021/04/30 10:06:57;;;;;;;3.15;1.38;;;;;;;14.78;55.44;99457.78;5094016;28;20405;-64
2021/04/30 10:09:27;;;;;;;3.03;1.63;;;;;;;14.90;55.32;99441.41;5081955;28;20492;-64
2021/04/30 10:11:53;;;;;;;2.97;1.58;;;;;;;15.15;55.49;99449.81;5083773;28;20021;-66
2021/04/30 10:14:19;;;;;;;3.00;1.73;;;;;;;15.42;55.27;99444.97;5090350;28;20022;-67
2021/04/30 10:16:44;;;;;;;4.07;2.03;;;;;;;15.54;54.31;99436.00;5086609;28;20369;-66
2021/04/30 10:19:10;;;;;;;3.13;2.05;;;;;;;15.66;53.37;99438.78;5088058;28;20513;-66
2021/04/30 10:21:42;;;;;;;4.97;1.85;;;;;;;15.70;53.20;99439.72;5092557;28;20028;-66
2021/04/30 10:24:15;;;;;;;4.43;2.00;;;;;;;15.64;53.10;99443.84;5083043;28;20544;-67
2021/04/30 10:26:42;;;;;;;2.85;1.70;;;;;;;15.38;52.95;99435.78;5069216;28;20017;-66
2021/04/30 10:29:11;;;;;;;3.42;1.80;;;;;;;15.27;53.35;99438.94;5090788;28;20024;-67
2021/04/30 10:31:43;;;;;;;3.00;2.00;;;;;;;15.21;53.25;99428.47;5084590;28;20040;-66
2021/04/30 10:34:17;;;;;;;2.63;2.00;;;;;;;15.23;53.67;99431.69;5096372;28;20028;-66
2021/04/30 10:36:48;;;;;;;2.63;1.95;;;;;;;15.26;53.76;99429.09;5085875;28;20048;-65
2021/04/30 10:39:32;;;;;;;3.35;1.60;;;;;;;15.46;53.95;99426.66;5087879;28;20100;-67
2021/04/30 10:42:07;;;;;;;3.13;1.80;;;;;;;15.55;53.64;99419.16;5097126;28;20384;-67
2021/04/30 10:44:32;;;;;;;2.58;1.70;;;;;;;15.75;53.56;99422.22;5098061;28;20031;-69
2021/04/30 10:47:07;;;;;;;3.83;1.90;;;;;;;15.91;52.54;99419.66;5081919;28;20021;-69
2021/04/30 10:49:32;;;;;;;5.47;2.13;;;;;;;15.96;52.57;99402.97;5079787;28;20031;-69
2021/04/30 10:52:23;;;;;;;3.10;1.67;;;;;;;16.23;52.60;99406.25;5088483;28;20540;-69
2021/04/30 10:55:16;;;;;;;3.65;1.88;;;;;;;16.18;51.47;99410.03;5091323;28;20024;-70
2021/04/30 10:58:00;;;;;;;2.38;1.50;;;;;;;16.13;51.71;99401.97;5080513;28;20326;-69
2021/04/30 11:00:36;;;;;;;4.82;1.60;;;;;;;16.12;51.38;99410.59;5088415;28;20107;-71
2021/04/30 11:03:23;;;;;;;3.90;1.60;;;;;;;16.16;50.87;99412.31;5077259;28;20034;-71
2021/04/30 11:05:59;;;;;;;3.83;2.00;;;;;;;16.19;50.64;99405.31;5091103;28;20116;-71
2021/04/30 11:08:52;;;;;;;3.95;1.70;;;;;;;16.14;49.41;99403.59;5088151;28;20052;-66
2021/04/30 11:11:32;;;;;;;3.60;1.60;;;;;;;16.15;50.11;99410.72;5089161;28;20020;-68
2021/04/30 11:14:31;;;;;;;2.72;1.73;;;;;;;16.13;49.51;99418.47;5090118;28;20027;-67
2021/04/30 11:16:58;;;;;;;2.65;1.70;;;;;;;16.13;50.62;99409.44;5089770;28;20024;-69
2021/04/30 11:19:26;;;;;;;5.78;2.00;;;;;;;16.14;50.39;99406.34;5095432;28;20483;-69
2021/04/30 11:21:54;;;;;;;9.02;1.65;;;;;;;16.23;50.83;99400.75;5081338;28;20023;-70
2021/04/30 11:24:40;;;;;;;2.63;1.38;;;;;;;16.39;50.08;99402.84;5092098;28;20064;-69
2021/04/30 11:27:11;;;;;;;2.92;1.40;;;;;;;16.36;49.50;99415.34;5076020;28;20480;-69
2021/04/30 11:29:40;;;;;;;5.10;1.75;;;;;;;16.27;50.08;99403.63;5091186;28;20027;-69
2021/04/30 11:32:24;;;;;;;2.05;1.60;;;;;;;16.18;49.16;99400.97;5080245;28;20060;-69
2021/04/30 11:34:56;;;;;;;2.35;1.60;;;;;;;16.13;49.58;99396.47;5083050;28;20028;-70
2021/04/30 11:37:23;;;;;;;3.33;1.80;;;;;;;16.20;49.65;99401.44;5082086;28;20032;-70